Time;durP1;ratioP1;P1;durP2;ratioP2;P2;SDS_P1;SDS_P2;PMS_P1;PMS_P2;Temp;Humidity;BMP_temperature;BMP_pressure;BME280_temperature;BME280_humidity;BME280_pressure;Samples;Min_cycle;Max_cycle;Signal;HPM_P1;HPM_P2
2022/07/18 00:02:02;;;;;;;;;;;15.10;99.90;;;;;;4985615;28;19929;-83
2022/07/18 00:04:28;;;;;;;;;;;15.10;99.90;;;;;;4978684;28;19929;-83
2022/07/18 00:06:54;;;;;;;;;;;15.10;99.90;;;;;;4969964;28;19977;-83
2022/07/18 00:09:23;;;;;;;;;;;15.00;99.90;;;;;;4989261;28;19935;-83
2022/07/18 00:11:49;;;;;;;;;;;15.10;99.90;;;;;;4975064;28;20098;-84
2022/07/18 00:14:15;;;;;;;;;;;15.00;99.90;;;;;;5006432;28;20060;-84
2022/07/18 00:16:40;;;;;;;;;;;14.90;99.90;;;;;;4985565;28;19929;-84
2022/07/18 00:19:06;;;;;;;;;;;14.90;99.90;;;;;;5019045;28;19933;-83
2022/07/18 00:21:32;;;;;;;;;;;14.80;99.90;;;;;;5004848;28;19935;-84
2022/07/18 00:23:58;;;;;;;;;;;14.80;99.90;;;;;;5011239;28;19929;-83
2022/07/18 00:26:24;;;;;;;;;;;14.80;99.90;;;;;;5007007;28;20778;-84
2022/07/18 00:28:50;;;;;;;;;;;14.70;99.90;;;;;;4991873;28;20400;-84
2022/07/18 00:31:15;;;;;;;;;;;14.70;99.90;;;;;;4972276;28;19929;-84
2022/07/18 00:33:41;;;;;;;;;;;14.60;99.90;;;;;;4992770;28;19936;-84
2022/07/18 00:36:09;;;;;;;;;;;14.60;99.90;;;;;;4995779;28;20448;-84
2022/07/18 00:38:35;;;;;;;;;;;14.60;99.90;;;;;;4995769;28;20335;-84
2022/07/18 00:41:01;;;;;;;;;;;14.60;99.90;;;;;;4995398;28;20020;-83
2022/07/18 00:43:27;;;;;;;;;;;14.70;99.90;;;;;;4997818;28;20005;-83
2022/07/18 00:45:52;;;;;;;;;;;14.60;99.90;;;;;;4998127;28;19941;-84
2022/07/18 00:48:19;;;;;;;;;;;14.60;99.90;;;;;;4993885;28;19929;-84
2022/07/18 00:50:44;;;;;;;;;;;14.60;99.90;;;;;;4996254;28;19983;-84
2022/07/18 00:53:13;;;;;;;;;;;14.50;99.90;;;;;;4973424;28;20886;-84
2022/07/18 00:55:39;;;;;;;;;;;14.50;99.90;;;;;;4973620;28;20638;-84
2022/07/18 00:58:05;;;;;;;;;;;14.50;99.90;;;;;;4992990;28;20226;-83
2022/07/18 01:03:15;;;;;;;;;;;14.50;99.90;;;;;;4992014;28;19929;-84
2022/07/18 01:05:40;;;;;;;;;;;14.50;99.90;;;;;;4995072;28;19936;-84
2022/07/18 01:08:06;;;;;;;;;;;14.50;99.90;;;;;;4996337;28;19953;-84
2022/07/18 01:10:32;;;;;;;;;;;14.70;99.90;;;;;;4993294;28;19930;-84
2022/07/18 01:12:57;;;;;;;;;;;14.60;99.90;;;;;;4992096;28;21071;-84
2022/07/18 01:15:23;;;;;;;;;;;14.50;99.90;;;;;;4989151;28;19932;-83
2022/07/18 01:17:49;;;;;;;;;;;14.50;99.90;;;;;;4992171;28;20449;-84
2022/07/18 01:20:14;;;;;;;;;;;14.50;99.90;;;;;;4989919;28;19933;-84
2022/07/18 01:22:41;;;;;;;;;;;14.50;99.90;;;;;;4991968;28;20973;-84
2022/07/18 01:25:08;;;;;;;;;;;14.60;99.90;;;;;;4997542;28;19936;-84
2022/07/18 01:27:33;;;;;;;;;;;14.60;99.90;;;;;;5003084;28;19933;-84
2022/07/18 01:29:59;;;;;;;;;;;14.60;99.90;;;;;;5006310;28;19936;-84
2022/07/18 01:32:25;;;;;;;;;;;14.40;99.90;;;;;;5007047;28;19930;-84
2022/07/18 01:34:51;;;;;;;;;;;14.40;99.90;;;;;;5004940;28;20701;-83
2022/07/18 01:37:16;;;;;;;;;;;14.40;99.90;;;;;;4988891;28;21640;-83
2022/07/18 01:39:42;;;;;;;;;;;14.50;99.90;;;;;;4986197;28;20382;-84
2022/07/18 01:42:09;;;;;;;;;;;14.50;99.90;;;;;;5021462;28;20931;-84
2022/07/18 01:44:34;;;;;;;;;;;14.50;99.90;;;;;;5003066;28;19975;-84
2022/07/18 01:47:00;;;;;;;;;;;14.40;99.90;;;;;;5002812;28;19933;-83
2022/07/18 01:49:27;;;;;;;;;;;14.30;99.90;;;;;;5007330;28;19971;-83
2022/07/18 01:51:53;;;;;;;;;;;14.30;99.90;;;;;;4977030;28;20365;-84
2022/07/18 01:54:19;;;;;;;;;;;14.30;99.90;;;;;;5009406;28;19932;-84
2022/07/18 01:56:45;;;;;;;;;;;14.30;99.90;;;;;;5009553;28;19925;-83
2022/07/18 01:59:11;;;;;;;;;;;14.50;99.90;;;;;;5006902;28;20327;-84
2022/07/18 02:01:36;;;;;;;;;;;14.50;99.90;;;;;;5008096;28;20047;-84
2022/07/18 02:04:02;;;;;;;;;;;14.60;99.90;;;;;;4992482;28;19963;-84
2022/07/18 02:06:28;;;;;;;;;;;14.70;99.90;;;;;;5009285;28;19968;-84
2022/07/18 02:08:53;;;;;;;;;;;14.70;99.90;;;;;;5009637;28;20457;-84
2022/07/18 02:11:19;;;;;;;;;;;14.50;99.90;;;;;;5006854;28;20031;-83
2022/07/18 02:13:44;;;;;;;;;;;14.40;99.90;;;;;;5011059;28;20606;-83
2022/07/18 02:16:10;;;;;;;;;;;14.30;99.90;;;;;;5010986;28;20105;-84
2022/07/18 02:18:36;;;;;;;;;;;14.40;99.90;;;;;;5010475;28;19933;-84
2022/07/18 02:21:02;;;;;;;;;;;14.30;99.90;;;;;;5014567;28;20503;-83
2022/07/18 02:23:28;;;;;;;;;;;14.30;99.90;;;;;;4996850;28;19981;-84
2022/07/18 02:25:54;;;;;;;;;;;14.40;99.90;;;;;;5011249;28;19932;-83
2022/07/18 02:28:20;;;;;;;;;;;14.40;99.90;;;;;;5007907;28;19929;-83
2022/07/18 02:30:46;;;;;;;;;;;14.20;99.90;;;;;;5009132;28;19929;-84
2022/07/18 02:33:11;;;;;;;;;;;14.20;99.90;;;;;;4989459;28;20090;-84
2022/07/18 02:35:37;;;;;;;;;;;14.10;99.90;;;;;;5009837;28;19974;-84
2022/07/18 02:38:03;;;;;;;;;;;14.10;99.90;;;;;;5010275;28;19929;-84
2022/07/18 02:40:28;;;;;;;;;;;14.10;99.90;;;;;;5007847;28;20003;-83
2022/07/18 02:42:54;;;;;;;;;;;14.10;99.90;;;;;;4991441;28;19932;-83
2022/07/18 02:45:19;;;;;;;;;;;14.10;99.90;;;;;;5007830;28;19935;-83
2022/07/18 02:47:45;;;;;;;;;;;14.00;99.90;;;;;;5009627;28;19925;-83
2022/07/18 02:50:13;;;;;;;;;;;13.90;99.90;;;;;;4988774;28;19935;-84
2022/07/18 02:52:39;;;;;;;;;;;13.90;99.90;;;;;;5007482;28;20091;-84
2022/07/18 02:55:05;;;;;;;;;;;13.90;99.90;;;;;;5010671;28;19929;-84
2022/07/18 02:57:30;;;;;;;;;;;13.80;99.90;;;;;;4991941;28;19940;-83
2022/07/18 02:59:56;;;;;;;;;;;13.90;99.90;;;;;;5010935;28;20071;-83
2022/07/18 03:02:22;;;;;;;;;;;14.00;99.90;;;;;;5007983;28;20060;-84
2022/07/18 03:04:47;;;;;;;;;;;14.00;99.90;;;;;;5010414;28;19934;-83
2022/07/18 03:07:13;;;;;;;;;;;14.00;99.90;;;;;;4994048;28;19929;-83
2022/07/18 03:09:39;;;;;;;;;;;13.90;99.90;;;;;;5023296;28;20429;-83
2022/07/18 03:12:04;;;;;;;;;;;14.00;99.90;;;;;;5003263;28;20031;-83
2022/07/18 03:14:30;;;;;;;;;;;14.00;99.90;;;;;;5009738;28;19987;-83
2022/07/18 03:16:56;;;;;;;;;;;14.10;99.90;;;;;;5008642;28;19933;-83
2022/07/18 03:19:21;;;;;;;;;;;14.10;99.90;;;;;;5009082;28;20445;-83
2022/07/18 03:21:47;;;;;;;;;;;14.20;99.90;;;;;;5004463;28;19933;-84
2022/07/18 03:24:16;;;;;;;;;;;14.20;99.90;;;;;;5009155;28;19937;-84
2022/07/18 03:26:42;;;;;;;;;;;14.30;99.90;;;;;;5010416;28;19956;-83
2022/07/18 03:29:07;;;;;;;;;;;14.40;99.90;;;;;;4991871;28;19929;-83
2022/07/18 03:31:33;;;;;;;;;;;14.40;99.90;;;;;;5006319;28;19983;-85
2022/07/18 03:33:59;;;;;;;;;;;14.30;99.90;;;;;;5012277;28;19929;-84
2022/07/18 03:36:24;;;;;;;;;;;14.30;99.90;;;;;;5004059;28;19968;-84
2022/07/18 03:38:50;;;;;;;;;;;14.30;99.90;;;;;;4976297;28;20309;-84
2022/07/18 03:41:16;;;;;;;;;;;14.10;99.90;;;;;;5006845;28;19933;-85
2022/07/18 03:43:41;;;;;;;;;;;14.00;99.90;;;;;;5009424;28;19978;-83
2022/07/18 03:46:08;;;;;;;;;;;14.10;99.90;;;;;;5010593;28;19928;-85
2022/07/18 03:48:34;;;;;;;;;;;14.00;99.90;;;;;;5006390;28;19929;-85
2022/07/18 03:51:00;;;;;;;;;;;14.20;99.90;;;;;;5009875;28;19954;-84
2022/07/18 03:53:26;;;;;;;;;;;14.40;99.90;;;;;;5004740;28;19929;-84
2022/07/18 03:55:51;;;;;;;;;;;14.50;99.90;;;;;;4992965;28;19929;-85
2022/07/18 03:58:17;;;;;;;;;;;14.50;99.90;;;;;;5005418;28;20660;-85
2022/07/18 04:00:43;;;;;;;;;;;14.30;99.90;;;;;;5007871;28;20041;-85
2022/07/18 04:03:08;;;;;;;;;;;14.30;99.90;;;;;;5025688;28;20234;-84
2022/07/18 04:05:34;;;;;;;;;;;14.20;99.90;;;;;;5007905;28;19929;-85
2022/07/18 04:08:00;;;;;;;;;;;14.00;99.90;;;;;;5008079;28;19929;-86
2022/07/18 04:10:25;;;;;;;;;;;14.00;99.90;;;;;;5010813;28;19926;-85
2022/07/18 04:12:52;;;;;;;;;;;14.00;99.90;;;;;;5006787;28;19937;-85
2022/07/18 04:15:19;;;;;;;;;;;14.10;99.90;;;;;;5023717;28;20051;-84
2022/07/18 04:17:45;;;;;;;;;;;14.10;99.90;;;;;;5013823;28;19933;-84
2022/07/18 04:20:11;;;;;;;;;;;14.10;99.90;;;;;;5007436;28;20643;-86
2022/07/18 04:22:53;;;;;;;;;;;14.20;99.90;;;;;;5007533;28;19939;-84
2022/07/18 04:25:19;;;;;;;;;;;14.20;99.90;;;;;;4988573;28;19929;-85
2022/07/18 04:27:45;;;;;;;;;;;14.20;99.90;;;;;;5007193;28;19929;-84
2022/07/18 04:30:11;;;;;;;;;;;14.10;99.90;;;;;;5009912;28;19940;-86
2022/07/18 04:32:37;;;;;;;;;;;14.20;99.90;;;;;;5005686;28;20402;-86
2022/07/18 04:35:03;;;;;;;;;;;14.30;99.90;;;;;;4987800;28;20601;-85
2022/07/18 04:37:30;;;;;;;;;;;14.30;99.90;;;;;;4988359;28;20833;-85
2022/07/18 04:39:55;;;;;;;;;;;14.40;99.90;;;;;;5009685;28;19929;-84
2022/07/18 04:42:21;;;;;;;;;;;14.40;99.90;;;;;;5005135;28;19935;-84
2022/07/18 04:44:46;;;;;;;;;;;14.50;99.90;;;;;;5006756;28;19936;-86
2022/07/18 04:47:12;;;;;;;;;;;14.50;99.90;;;;;;4988886;28;20275;-86
2022/07/18 04:49:38;;;;;;;;;;;14.60;99.90;;;;;;5004577;28;20718;-86
2022/07/18 04:52:03;;;;;;;;;;;14.70;99.90;;;;;;5010168;28;19929;-84
2022/07/18 04:54:29;;;;;;;;;;;14.90;99.90;;;;;;5011024;28;19956;-86
2022/07/18 04:56:55;;;;;;;;;;;16.10;99.90;;;;;;5015488;28;19933;-85
2022/07/18 04:59:20;;;;;;;;;;;17.10;99.90;;;;;;5013630;28;19936;-85
2022/07/18 05:01:46;;;;;;;;;;;18.10;99.90;;;;;;4986935;28;19933;-86
2022/07/18 05:04:12;;;;;;;;;;;17.00;99.90;;;;;;5006417;28;19929;-85
2022/07/18 05:06:37;;;;;;;;;;;16.50;99.90;;;;;;5013069;28;19936;-85
2022/07/18 05:09:03;;;;;;;;;;;16.30;99.90;;;;;;5015983;28;19979;-85
2022/07/18 05:11:28;;;;;;;;;;;16.10;99.90;;;;;;5012859;28;20002;-85
2022/07/18 05:13:54;;;;;;;;;;;16.10;99.90;;;;;;5008912;28;19936;-85
2022/07/18 05:16:20;;;;;;;;;;;16.60;99.90;;;;;;5015121;28;19940;-85
2022/07/18 05:18:45;;;;;;;;;;;18.90;99.90;;;;;;5013140;28;20154;-85
2022/07/18 05:21:11;;;;;;;;;;;19.90;99.90;;;;;;5010353;28;19929;-85
2022/07/18 05:23:37;;;;;;;;;;;20.30;99.90;;;;;;5016829;28;19939;-86
2022/07/18 05:26:02;;;;;;;;;;;19.40;99.90;;;;;;5013776;28;19928;-85
2022/07/18 05:28:28;;;;;;;;;;;18.40;99.90;;;;;;4997697;28;19939;-86
2022/07/18 05:30:54;;;;;;;;;;;17.90;99.90;;;;;;5014649;28;19940;-86
2022/07/18 05:33:20;;;;;;;;;;;17.60;99.90;;;;;;4995629;28;19936;-85
2022/07/18 05:35:46;;;;;;;;;;;17.50;99.90;;;;;;5015484;28;20231;-84
2022/07/18 05:38:12;;;;;;;;;;;17.80;99.90;;;;;;5033440;28;19936;-85
2022/07/18 05:40:38;;;;;;;;;;;18.60;99.90;;;;;;5017155;28;19925;-85
2022/07/18 05:43:03;;;;;;;;;;;19.40;99.90;;;;;;5012869;28;20555;-85
2022/07/18 05:45:29;;;;;;;;;;;18.40;99.90;;;;;;5016100;28;19933;-85
2022/07/18 05:47:55;;;;;;;;;;;18.40;99.90;;;;;;5020640;28;19933;-85
2022/07/18 05:50:21;;;;;;;;;;;18.00;99.90;;;;;;5015962;28;19964;-87
2022/07/18 05:52:47;;;;;;;;;;;17.80;99.90;;;;;;5018393;28;20044;-87
2022/07/18 05:55:12;;;;;;;;;;;17.70;99.90;;;;;;5019872;28;19929;-84
2022/07/18 05:57:38;;;;;;;;;;;17.70;99.90;;;;;;5017787;28;20047;-86
2022/07/18 06:00:04;;;;;;;;;;;17.90;99.90;;;;;;5019833;28;19967;-84
2022/07/18 06:02:30;;;;;;;;;;;18.20;99.90;;;;;;5015813;28;19940;-85
2022/07/18 06:04:56;;;;;;;;;;;18.40;99.90;;;;;;5014909;28;20314;-85
2022/07/18 06:07:21;;;;;;;;;;;18.70;99.90;;;;;;5017303;28;19924;-85
2022/07/18 06:09:47;;;;;;;;;;;19.00;99.90;;;;;;5012218;28;20195;-85
2022/07/18 06:12:13;;;;;;;;;;;19.40;99.90;;;;;;5018751;28;20702;-85
2022/07/18 06:14:39;;;;;;;;;;;19.30;99.90;;;;;;5018450;28;20270;-85
2022/07/18 06:17:04;;;;;;;;;;;19.20;99.90;;;;;;4999300;28;20375;-84
2022/07/18 06:19:30;;;;;;;;;;;19.00;99.90;;;;;;5020998;28;20370;-85
2022/07/18 06:21:56;;;;;;;;;;;18.80;99.90;;;;;;5011137;28;19932;-85
2022/07/18 06:24:21;;;;;;;;;;;18.70;99.90;;;;;;5013133;28;19983;-87
2022/07/18 06:26:49;;;;;;;;;;;18.80;99.90;;;;;;5033330;28;19998;-86
2022/07/18 06:29:15;;;;;;;;;;;18.80;99.90;;;;;;4964368;28;19936;-86
2022/07/18 06:31:41;;;;;;;;;;;18.80;99.90;;;;;;5016380;28;19972;-86
2022/07/18 06:34:06;;;;;;;;;;;18.90;99.90;;;;;;5015908;28;19991;-85
2022/07/18 06:36:32;;;;;;;;;;;19.10;99.90;;;;;;5019563;28;19929;-85
2022/07/18 06:38:58;;;;;;;;;;;19.20;99.90;;;;;;5018389;28;19975;-85
2022/07/18 06:41:23;;;;;;;;;;;19.40;99.90;;;;;;5017542;28;20683;-85
2022/07/18 06:43:49;;;;;;;;;;;19.40;99.90;;;;;;5016866;28;19929;-88
2022/07/18 06:46:15;;;;;;;;;;;19.70;99.90;;;;;;4980614;28;19978;-87
2022/07/18 06:48:40;;;;;;;;;;;19.80;99.90;;;;;;5015019;28;19983;-84
2022/07/18 06:51:08;;;;;;;;;;;20.00;99.90;;;;;;5002091;28;20128;-86
2022/07/18 06:53:34;;;;;;;;;;;20.00;99.90;;;;;;4998586;28;20390;-85
2022/07/18 06:56:02;;;;;;;;;;;20.30;99.90;;;;;;4983712;28;19982;-85
2022/07/18 06:58:30;;;;;;;;;;;20.50;99.90;;;;;;5004046;28;19932;-85
2022/07/18 07:00:56;;;;;;;;;;;20.50;99.90;;;;;;4994502;28;19933;-86
2022/07/18 07:03:22;;;;;;;;;;;20.60;99.90;;;;;;4984596;28;19952;-85
2022/07/18 07:05:48;;;;;;;;;;;20.80;99.90;;;;;;5001048;28;20288;-86
2022/07/18 07:08:16;;;;;;;;;;;20.80;99.90;;;;;;5000758;28;20488;-85
2022/07/18 07:10:42;;;;;;;;;;;21.10;99.90;;;;;;4977315;28;19929;-85
2022/07/18 07:13:07;;;;;;;;;;;21.40;99.90;;;;;;4992651;28;19936;-86
2022/07/18 07:15:33;;;;;;;;;;;21.80;99.90;;;;;;4995116;28;21416;-87
2022/07/18 07:17:59;;;;;;;;;;;22.10;99.90;;;;;;4996606;28;19928;-87
2022/07/18 07:20:24;;;;;;;;;;;22.70;99.90;;;;;;4997344;28;19986;-86
2022/07/18 07:22:52;;;;;;;;;;;22.80;99.90;;;;;;4989382;28;19929;-86
2022/07/18 07:25:18;;;;;;;;;;;23.30;99.90;;;;;;4989222;28;20442;-87
2022/07/18 07:27:43;;;;;;;;;;;23.50;99.90;;;;;;4959812;28;19963;-86
2022/07/18 07:30:10;;;;;;;;;;;24.00;99.90;;;;;;4993236;28;20718;-82
2022/07/18 07:32:37;;;;;;;;;;;23.90;99.90;;;;;;4979226;28;19933;-86
2022/07/18 07:35:06;;;;;;;;;;;24.20;99.90;;;;;;4992154;28;19929;-87
2022/07/18 07:37:34;;;;;;;;;;;24.40;99.90;;;;;;4993520;28;19932;-84
2022/07/18 07:40:00;;;;;;;;;;;24.50;99.90;;;;;;4996151;28;20429;-86
2022/07/18 07:42:26;;;;;;;;;;;24.60;99.90;;;;;;4987003;28;19929;-86
2022/07/18 07:44:51;;;;;;;;;;;24.90;99.90;;;;;;4993557;28;20481;-85
2022/07/18 07:47:17;;;;;;;;;;;25.20;99.90;;;;;;5013662;28;20576;-87
2022/07/18 07:49:43;;;;;;;;;;;25.40;99.90;;;;;;4992417;28;20705;-85
2022/07/18 07:52:10;;;;;;;;;;;25.40;99.90;;;;;;4997868;28;19929;-85
2022/07/18 07:54:36;;;;;;;;;;;25.80;99.90;;;;;;4997587;28;20525;-84
2022/07/18 07:57:01;;;;;;;;;;;26.00;99.90;;;;;;4979030;28;19933;-84
2022/07/18 07:59:27;;;;;;;;;;;25.90;99.90;;;;;;4983587;28;19940;-85
2022/07/18 08:01:53;;;;;;;;;;;26.00;99.90;;;;;;4997661;28;19967;-85
2022/07/18 08:04:18;;;;;;;;;;;26.10;99.80;;;;;;4964644;28;20559;-84
2022/07/18 08:06:44;;;;;;;;;;;26.10;98.10;;;;;;4987257;28;20306;-85
2022/07/18 08:09:10;;;;;;;;;;;26.30;99.60;;;;;;4987208;28;19991;-86
2022/07/18 08:11:35;;;;;;;;;;;26.30;98.10;;;;;;4981498;28;19929;-88
2022/07/18 08:14:01;;;;;;;;;;;26.40;99.20;;;;;;4997691;28;20416;-83
2022/07/18 08:16:27;;;;;;;;;;;26.70;99.90;;;;;;4994951;28;20458;-86
2022/07/18 08:18:52;;;;;;;;;;;26.80;99.10;;;;;;4995288;28;20725;-88
2022/07/18 08:21:18;;;;;;;;;;;26.80;96.90;;;;;;4991137;28;19937;-88
2022/07/18 08:23:47;;;;;;;;;;;27.00;97.90;;;;;;4973635;28;20039;-87
2022/07/18 08:26:12;;;;;;;;;;;27.30;98.80;;;;;;5002395;28;20632;-86
2022/07/18 08:28:38;;;;;;;;;;;27.10;96.80;;;;;;4994304;28;19929;-86
2022/07/18 08:31:04;;;;;;;;;;;27.40;97.30;;;;;;4999868;28;19936;-83
2022/07/18 08:33:29;;;;;;;;;;;27.30;93.20;;;;;;5004357;28;19933;-84
2022/07/18 08:35:55;;;;;;;;;;;27.50;94.10;;;;;;4998204;28;19936;-86
2022/07/18 08:38:20;;;;;;;;;;;27.80;94.40;;;;;;4973243;28;19928;-84
2022/07/18 08:40:51;;;;;;;;;;;27.70;94.00;;;;;;4988464;28;20917;-82
2022/07/18 08:43:17;;;;;;;;;;;27.70;93.60;;;;;;4995761;28;20014;-84
2022/07/18 08:45:43;;;;;;;;;;;27.80;92.70;;;;;;5001143;28;19929;-85
2022/07/18 08:48:09;;;;;;;;;;;28.00;93.10;;;;;;5000932;28;19956;-83
2022/07/18 08:50:35;;;;;;;;;;;28.00;91.30;;;;;;5020736;28;19951;-84
2022/07/18 08:53:01;;;;;;;;;;;27.70;90.90;;;;;;4995260;28;19935;-85
2022/07/18 08:55:27;;;;;;;;;;;27.70;92.40;;;;;;4981287;28;19995;-88
2022/07/18 08:57:53;;;;;;;;;;;27.60;92.30;;;;;;4973300;28;20408;-84
2022/07/18 09:00:20;;;;;;;;;;;27.90;93.80;;;;;;4989957;28;20694;-83
2022/07/18 09:02:46;;;;;;;;;;;28.10;92.60;;;;;;4989833;28;19936;-85
2022/07/18 09:05:19;;;;;;;;;;;28.20;92.30;;;;;;4989707;28;19933;-86
2022/07/18 09:07:44;;;;;;;;;;;28.30;91.90;;;;;;4975710;28;19971;-84
2022/07/18 09:10:10;;;;;;;;;;;28.50;91.60;;;;;;4983326;28;19937;-86
2022/07/18 09:12:36;;;;;;;;;;;28.80;91.80;;;;;;4962435;28;19968;-85
2022/07/18 09:15:06;;;;;;;;;;;29.00;92.90;;;;;;4987480;28;20359;-85
2022/07/18 09:17:33;;;;;;;;;;;29.20;91.50;;;;;;4987266;28;20031;-83
2022/07/18 09:19:58;;;;;;;;;;;29.30;90.10;;;;;;5002702;28;19951;-85
2022/07/18 09:22:25;;;;;;;;;;;29.30;89.10;;;;;;4996110;28;19991;-88
2022/07/18 09:25:01;;;;;;;;;;;29.30;87.60;;;;;;4996171;28;20412;-85
2022/07/18 09:27:27;;;;;;;;;;;29.80;90.70;;;;;;5001204;28;19991;-85
2022/07/18 09:30:20;;;;;;;;;;;29.70;90.00;;;;;;5002401;28;19929;-83
2022/07/18 09:32:47;;;;;;;;;;;29.40;87.40;;;;;;4992000;28;19971;-83
2022/07/18 09:35:33;;;;;;;;;;;29.40;81.40;;;;;;5000653;28;19933;-84
2022/07/18 09:38:01;;;;;;;;;;;29.20;83.90;;;;;;4996195;28;20442;-86
2022/07/18 09:40:32;;;;;;;;;;;29.20;84.00;;;;;;4996527;28;19933;-86
2022/07/18 09:43:00;;;;;;;;;;;29.40;87.80;;;;;;4995887;28;19929;-84
2022/07/18 09:45:31;;;;;;;;;;;29.60;84.50;;;;;;4998386;28;19965;-84
2022/07/18 09:48:01;;;;;;;;;;;30.00;86.90;;;;;;4996407;28;19972;-83
2022/07/18 09:50:28;;;;;;;;;;;30.30;85.40;;;;;;4998357;28;19933;-84
2022/07/18 09:52:58;;;;;;;;;;;30.20;82.70;;;;;;5017803;28;20201;-84
2022/07/18 09:55:24;;;;;;;;;;;30.30;85.00;;;;;;5012580;28;20719;-86
2022/07/18 09:58:16;;;;;;;;;;;30.30;84.50;;;;;;5010919;28;19929;-84
2022/07/18 10:00:42;;;;;;;;;;;30.40;83.90;;;;;;5011705;28;19935;-84
2022/07/18 10:03:08;;;;;;;;;;;30.20;81.60;;;;;;5010419;28;19933;-84
2022/07/18 10:05:36;;;;;;;;;;;30.50;84.90;;;;;;5011248;28;19929;-84
2022/07/18 10:08:03;;;;;;;;;;;30.50;82.70;;;;;;5008157;28;19959;-85
2022/07/18 10:10:29;;;;;;;;;;;30.30;80.80;;;;;;5010311;28;19940;-84
2022/07/18 10:12:56;;;;;;;;;;;30.50;80.40;;;;;;5011696;28;19929;-84
2022/07/18 10:15:23;;;;;;;;;;;30.80;79.90;;;;;;5011151;28;19983;-84
2022/07/18 10:17:48;;;;;;;;;;;31.00;81.40;;;;;;5016962;28;19966;-85
2022/07/18 10:20:14;;;;;;;;;;;31.30;82.20;;;;;;5016491;28;20035;-84
2022/07/18 10:22:42;;;;;;;;;;;31.00;79.50;;;;;;4998080;28;20333;-84
2022/07/18 10:25:08;;;;;;;;;;;31.00;80.10;;;;;;5013731;28;20329;-82
2022/07/18 10:27:53;;;;;;;;;;;30.90;73.90;;;;;;5013555;28;19928;-84
2022/07/18 10:30:31;;;;;;;;;;;31.00;78.20;;;;;;4994413;28;19936;-85
2022/07/18 10:32:57;;;;;;;;;;;31.20;78.20;;;;;;4976480;28;19933;-83
2022/07/18 10:35:43;;;;;;;;;;;31.30;76.60;;;;;;5009177;28;20485;-85
2022/07/18 10:38:21;;;;;;;;;;;31.30;78.00;;;;;;5012527;28;19939;-83
2022/07/18 10:41:08;;;;;;;;;;;31.20;78.30;;;;;;5015891;28;19991;-84
2022/07/18 10:43:37;;;;;;;;;;;31.00;78.40;;;;;;4998184;28;19936;-82
2022/07/18 10:46:04;;;;;;;;;;;31.00;75.20;;;;;;5016149;28;19936;-84
2022/07/18 10:48:32;;;;;;;;;;;30.90;74.70;;;;;;5015267;28;19956;-84
2022/07/18 10:51:11;;;;;;;;;;;31.20;76.60;;;;;;5014476;28;19968;-88
2022/07/18 10:53:57;;;;;;;;;;;31.20;73.40;;;;;;5009982;28;19952;-85
2022/07/18 10:56:29;;;;;;;;;;;31.30;74.40;;;;;;5011132;28;20193;-84
2022/07/18 10:58:55;;;;;;;;;;;31.40;72.50;;;;;;5007289;28;19936;-84
2022/07/18 11:01:22;;;;;;;;;;;31.60;70.30;;;;;;5009977;28;19936;-86
2022/07/18 11:03:49;;;;;;;;;;;31.70;68.70;;;;;;4998281;28;20004;-83
2022/07/18 11:06:15;;;;;;;;;;;31.80;72.20;;;;;;5011001;28;19971;-83
2022/07/18 11:08:40;;;;;;;;;;;31.80;70.00;;;;;;5004614;28;20019;-84
2022/07/18 11:11:07;;;;;;;;;;;31.80;67.70;;;;;;5009371;28;19929;-84
2022/07/18 11:13:36;;;;;;;;;;;31.80;70.70;;;;;;5004936;28;19929;-84
2022/07/18 11:16:05;;;;;;;;;;;31.50;70.00;;;;;;4999124;28;21011;-84
2022/07/18 11:18:31;;;;;;;;;;;31.30;66.50;;;;;;5001129;28;19956;-83
2022/07/18 11:20:57;;;;;;;;;;;31.70;67.30;;;;;;5016945;28;20208;-85
2022/07/18 11:23:23;;;;;;;;;;;31.90;70.20;;;;;;4998698;28;22377;-84
2022/07/18 11:25:58;;;;;;;;;;;31.90;69.90;;;;;;4986020;28;19972;-85
2022/07/18 11:28:25;;;;;;;;;;;31.70;67.90;;;;;;4968633;28;19992;-84
2022/07/18 11:30:58;;;;;;;;;;;32.20;70.70;;;;;;4967922;28;20703;-85
2022/07/18 11:33:25;;;;;;;;;;;32.20;68.10;;;;;;4971806;28;20408;-84
2022/07/18 11:35:52;;;;;;;;;;;32.30;65.00;;;;;;4986775;28;19933;-86
2022/07/18 11:38:18;;;;;;;;;;;32.10;66.20;;;;;;4976914;28;20383;-85
2022/07/18 11:40:50;;;;;;;;;;;31.90;67.00;;;;;;4949044;28;20373;-82
2022/07/18 11:43:23;;;;;;;;;;;32.00;68.00;;;;;;4990212;28;20677;-84
2022/07/18 11:46:00;;;;;;;;;;;31.80;66.20;;;;;;4989356;28;19968;-84
2022/07/18 11:48:26;;;;;;;;;;;31.80;67.60;;;;;;4983921;28;20303;-84
2022/07/18 11:50:52;;;;;;;;;;;31.90;68.10;;;;;;4988746;28;19936;-85
2022/07/18 11:53:17;;;;;;;;;;;32.10;68.80;;;;;;4988938;28;19929;-85
2022/07/18 11:55:43;;;;;;;;;;;32.20;67.20;;;;;;4985615;28;19928;-83
2022/07/18 11:58:13;;;;;;;;;;;32.20;68.40;;;;;;4987521;28;19928;-84
2022/07/18 12:00:39;;;;;;;;;;;32.10;67.70;;;;;;4994740;28;19941;-84
2022/07/18 12:03:10;;;;;;;;;;;32.30;68.90;;;;;;4968061;28;19928;-85
2022/07/18 12:05:37;;;;;;;;;;;32.30;65.50;;;;;;4995665;28;20012;-83
2022/07/18 12:08:21;;;;;;;;;;;32.20;68.90;;;;;;4980839;28;19929;-84
2022/07/18 12:11:03;;;;;;;;;;;31.90;65.40;;;;;;4992932;28;19940;-84
2022/07/18 12:13:47;;;;;;;;;;;31.70;67.10;;;;;;4982177;28;20020;-84
2022/07/18 12:16:31;;;;;;;;;;;31.60;71.40;;;;;;4970413;28;19967;-83
2022/07/18 12:18:58;;;;;;;;;;;31.60;69.80;;;;;;4984319;28;19933;-86
2022/07/18 12:21:24;;;;;;;;;;;31.20;63.50;;;;;;4984202;28;19929;-84
2022/07/18 12:23:50;;;;;;;;;;;31.90;70.50;;;;;;4988764;28;19933;-85
2022/07/18 12:26:34;;;;;;;;;;;32.00;69.60;;;;;;4986204;28;20291;-84
2022/07/18 12:29:04;;;;;;;;;;;32.20;66.90;;;;;;4971067;28;19992;-86
2022/07/18 12:31:40;;;;;;;;;;;31.60;63.30;;;;;;4985358;28;19933;-84
2022/07/18 12:34:15;;;;;;;;;;;32.40;68.60;;;;;;4987337;28;19936;-85
2022/07/18 12:36:54;;;;;;;;;;;32.80;69.30;;;;;;4983843;28;19933;-86
2022/07/18 12:39:27;;;;;;;;;;;32.90;70.60;;;;;;4988157;28;20023;-86
2022/07/18 12:41:53;;;;;;;;;;;33.00;71.00;;;;;;4971291;28;20023;-86
2022/07/18 12:44:18;;;;;;;;;;;33.00;67.90;;;;;;4986555;28;20398;-86
2022/07/18 12:46:44;;;;;;;;;;;32.90;68.20;;;;;;4985708;28;20820;-84
2022/07/18 12:49:10;;;;;;;;;;;33.20;68.80;;;;;;4991100;28;19929;-85
2022/07/18 12:51:35;;;;;;;;;;;33.20;66.90;;;;;;4991670;28;19936;-86
2022/07/18 12:54:01;;;;;;;;;;;33.30;64.40;;;;;;4990695;28;19929;-86
2022/07/18 12:56:27;;;;;;;;;;;33.50;67.30;;;;;;4990776;28;19933;-87
2022/07/18 12:58:52;;;;;;;;;;;33.90;68.70;;;;;;4977558;28;19936;-85
2022/07/18 13:01:34;;;;;;;;;;;33.70;65.20;;;;;;4976509;28;20019;-86
2022/07/18 13:03:59;;;;;;;;;;;33.50;66.30;;;;;;4978452;28;19956;-86
2022/07/18 13:06:25;;;;;;;;;;;33.30;64.90;;;;;;4984301;28;20062;-85
2022/07/18 13:08:51;;;;;;;;;;;33.50;67.20;;;;;;4965305;28;19940;-83
2022/07/18 13:11:16;;;;;;;;;;;33.30;66.10;;;;;;4979737;28;20089;-84
2022/07/18 13:13:42;;;;;;;;;;;33.00;63.50;;;;;;4983794;28;19948;-87
2022/07/18 13:16:08;;;;;;;;;;;32.90;66.10;;;;;;4989841;28;19929;-86
2022/07/18 13:18:33;;;;;;;;;;;32.90;68.70;;;;;;4992263;28;20012;-84
2022/07/18 13:20:59;;;;;;;;;;;32.90;64.10;;;;;;4977121;28;19941;-86
2022/07/18 13:23:24;;;;;;;;;;;32.50;64.60;;;;;;4998218;28;19929;-85
2022/07/18 13:25:50;;;;;;;;;;;32.90;66.50;;;;;;4997426;28;19928;-87
2022/07/18 13:28:16;;;;;;;;;;;32.90;61.90;;;;;;4991506;28;19936;-84
2022/07/18 13:30:41;;;;;;;;;;;32.90;63.30;;;;;;4994794;28;19929;-86
2022/07/18 13:33:07;;;;;;;;;;;33.00;63.70;;;;;;4998633;28;20016;-85
2022/07/18 13:35:33;;;;;;;;;;;33.10;64.50;;;;;;4996107;28;19936;-85
2022/07/18 13:38:01;;;;;;;;;;;33.20;64.10;;;;;;4977307;28;19958;-84
2022/07/18 13:40:27;;;;;;;;;;;33.60;64.60;;;;;;4996645;28;19933;-86
2022/07/18 13:42:53;;;;;;;;;;;33.70;60.90;;;;;;4991305;28;19933;-86
2022/07/18 13:45:19;;;;;;;;;;;33.50;64.70;;;;;;4987296;28;20350;-86
2022/07/18 13:47:44;;;;;;;;;;;33.50;61.40;;;;;;4996607;28;19933;-85
2022/07/18 13:50:11;;;;;;;;;;;32.90;63.00;;;;;;5006027;28;20304;-86
2022/07/18 13:52:36;;;;;;;;;;;32.50;64.40;;;;;;4996842;28;20406;-86
2022/07/18 13:55:02;;;;;;;;;;;32.20;63.60;;;;;;4998873;28;20059;-81
2022/07/18 13:57:28;;;;;;;;;;;31.80;65.10;;;;;;5002135;28;20022;-82
2022/07/18 13:59:54;;;;;;;;;;;31.90;65.00;;;;;;4988715;28;19979;-82
2022/07/18 14:02:26;;;;;;;;;;;31.60;65.20;;;;;;4996041;28;20704;-86
2022/07/18 14:04:57;;;;;;;;;;;31.30;66.90;;;;;;4990872;28;19933;-86
2022/07/18 14:07:23;;;;;;;;;;;31.40;69.00;;;;;;4980866;28;19929;-87
2022/07/18 14:09:50;;;;;;;;;;;31.10;66.60;;;;;;4997892;28;20378;-86
2022/07/18 14:12:16;;;;;;;;;;;31.00;68.10;;;;;;4999048;28;19932;-86
2022/07/18 14:14:42;;;;;;;;;;;31.00;69.20;;;;;;4953944;28;19929;-85
2022/07/18 14:17:07;;;;;;;;;;;31.00;69.40;;;;;;4999883;28;20812;-86
2022/07/18 14:19:36;;;;;;;;;;;31.10;69.40;;;;;;5007039;28;19929;-87